• Join FlightAware (Why Join?)
  • Login
  • US Flag 
03:07PM EDT


 

Airport Tracker/Info


-or-


 

Live Flight TrackerFlight Track Log ✈ SWA1670 ✈ 05-May-2013 ✈ KMHT - KBWI

Flight Track Log - Related Links

Times and Time Zones

All times are in EDT time to prevent confusion due to time zone crossing. See the SWA1670 flight status page for this flight to view local times or setup timezone preferences in your user account.

Time Position Orientation Groundspeed Altitude Reporting Facility
EDT Latitude Longitude Course Direction KTS MPH feet Rate Location/Type
09:44AM 42.9500 -71.4167 360° North 179 206 1,100  Level KA90
09:44AM 42.9500 -71.4167 23° Northeast 177 204 1,400 2,040 Climbing KA90
09:45AM 43.0000 -71.3869 23° Northeast 256 295 3,700 2,940 Climbing Boston Center
09:46AM 43.0281 -71.2700 72° East 240 276 7,800 3,360 Climbing Boston Center
09:47AM 43.0497 -71.1700 73° East 259 298 10,500 2,460 Climbing Boston Center
09:48AM 43.0756 -71.0531 73° East 307 353 12,800 2,340 Climbing Boston Center
09:49AM 43.0428 -70.9372 111° Southeast 307 353 15,200 2,460 Climbing Boston Center
09:50AM 42.9425 -70.9086 168° South 305 351 17,800 2,100 Climbing Boston Center
09:51AM 42.8450 -70.9478 196° South 301 346 19,500 1,920 Climbing Boston Center
09:52AM 42.7353 -71.0042 201° Southwest 347 399 21,700 2,040 Climbing Boston Center
09:53AM 42.6275 -71.0575 200° South 384 442 23,600 1,860 Climbing Boston Center
09:54AM 42.5156 -71.1133 200° South 413 475 25,500 1,740 Climbing Boston Center
09:55AM 42.4144 -71.1914 210° Southwest 425 489 27,100 1,440 Climbing Boston Center
09:56AM 42.3658 -71.3414 246° West 410 472 28,400 1,200 Climbing Boston Center
09:57AM 42.3172 -71.5022 248° West 432 497 29,500 1,140 Climbing Boston Center
09:58AM 42.2644 -71.6575 245° Southwest 447 514 30,700 1,200 Climbing Boston Center
09:59AM 42.2153 -71.8206 248° West 462 532 31,900 600 Climbing Boston Center
10:00AM 42.1639 -71.9808 247° West 467 537 32,000  Climbing Boston Center
10:01AM 42.1125 -72.1433 247° West 467 537 32,000  Level Boston Center
10:02AM 42.0711 -72.2722 247° West 472 543 32,000  Level Boston Center
10:03AM 42.0106 -72.4625 247° West 472 543 32,000  Level Boston Center
10:04AM 41.9625 -72.6272 249° West 472 543 32,000 -60 Level Boston Center
10:05AM 41.8997 -72.7469 235° Southwest 467 537 31,900  Descending Boston Center
10:07AM 41.7931 -72.8911 225° Southwest 475 547 32,000  Climbing Boston Center
10:08AM 41.6819 -73.0406 225° Southwest 481 554 32,000  Level Boston Center
10:09AM 41.5725 -73.1947 227° Southwest 481 554 32,000  Level Boston Center
10:10AM 41.4925 -73.3019 225° Southwest 468 539 32,000  Level Boston Center
10:11AM 41.4000 -73.4253 225° Southwest 468 539 32,000  Level Boston Center
10:13AM 41.1953 -73.7325 229° Southwest 473 544 32,000  Level New York Center
10:14AM 41.1125 -73.8719 232° Southwest 484 557 32,000  Level New York Center
10:15AM 41.0297 -74.0086 231° Southwest 484 557 32,000 -540 Level New York Center
10:16AM 40.9489 -74.1475 232° Southwest 484 557 31,000 -1,380 Descending New York Center
10:17AM 40.8700 -74.2725 230° Southwest 490 564 29,300 -1,560 Descending New York Center
10:18AM 40.7892 -74.4028 231° Southwest 485 558 28,000 -660 Descending New York Center
10:19AM 40.7122 -74.5328 232° Southwest 471 542 28,000  Level New York Center
10:20AM 40.6331 -74.6597 231° Southwest 461 531 28,000  Level New York Center
10:21AM 40.5494 -74.7886 230° Southwest 466 536 28,000  Level New York Center
10:22AM 40.4617 -74.9144 228° Southwest 466 536 28,000 -360 Level New York Center
10:23AM 40.3742 -75.0372 227° Southwest 471 542 27,300 -1,680 Descending New York Center
10:24AM 40.2858 -75.1653 228° Southwest 471 542 24,700 -2,460 Descending New York Center
10:25AM 40.2025 -75.2794 226° Southwest 466 536 22,300 -2,400 Descending New York Center
10:26AM 40.1231 -75.3911 227° Southwest 450 518 19,900 -2,160 Descending New York Center
10:27AM 40.0350 -75.5100 226° Southwest 423 487 18,100 -960 Descending New York Center
10:28AM 39.9689 -75.5975 225° Southwest 399 459 18,000 -480 Descending New York Center
10:29AM 39.8931 -75.7167 230° Southwest 394 453 17,200 -960 Descending New York Center
10:30AM 39.8406 -75.8239 237° Southwest 394 453 16,200 -1,680 Descending New York Center
10:32AM 39.7167 -76.0667 236° Southwest 364 419 12,000 -1,620 Descending Potomac TRACON
10:33AM 39.6667 -76.1667 237° Southwest 311 358 11,200 -1,200 Descending Potomac TRACON
10:34AM 39.6167 -76.2500 232° Southwest 299 344 9,800 -1,560 Descending Potomac TRACON
10:35AM 39.5833 -76.3500 247° West 294 338 8,300 -1,380 Descending Potomac TRACON
10:36AM 39.5333 -76.4500 237° Southwest 290 334 7,000 -660 Descending Potomac TRACON
10:37AM 39.5167 -76.5333 255° West 279 321 7,000  Level Potomac TRACON
10:38AM 39.5167 -76.6333 270° West 276 318 7,000 -540 Level Potomac TRACON
10:39AM 39.4667 -76.7167 232° Southwest 281 323 6,000 -960 Descending Potomac TRACON
10:40AM 39.4333 -76.8167 247° West 282 325 5,100 -1,080 Descending Potomac TRACON
10:41AM 39.3833 -76.8500 207° Southwest 267 307 4,000 -900 Descending Potomac TRACON
10:42AM 39.3167 -76.8833 201° Southwest 255 293 3,400 -840 Descending Potomac TRACON
10:43AM 39.2500 -76.8833 180° South 235 270 2,400 -780 Descending Potomac TRACON
10:44AM 39.1833 -76.8667 169° South 214 246 2,000 -300 Descending Potomac TRACON
10:45AM 39.1833 -76.8000 90° East 171 197 1,900 -420 Descending Potomac TRACON
10:46AM 39.1833 -76.7500 90° East 141 162 1,200 -780 Descending Potomac TRACON
10:47AM 39.1833 -76.7000 90° East 135 155 400 -840 Descending Potomac TRACON
10:49AM 39.1667 -76.6667 270° West  Level FlightAware Approximate
10:56AM 39.1754 -76.6683 270° West  Level Estimated
10:57AM 39.1754 -76.6683 270° West  Level Estimated
10:58AM 39.1754 -76.6683 270° West  Level Estimated